sensor_id;sensor_type;location;lat;lon;timestamp;P1;durP1;ratioP1;P2;durP2;ratioP2
58412;SDS011;44209;52.952;6.790;2023-02-03T00:00:14;7.37;;;2.47;;
58412;SDS011;44209;52.952;6.790;2023-02-03T00:02:41;8.03;;;2.57;;
58412;SDS011;44209;52.952;6.790;2023-02-03T00:05:06;11.43;;;2.97;;
58412;SDS011;44209;52.952;6.790;2023-02-03T00:07:32;6.40;;;2.30;;
58412;SDS011;44209;52.952;6.790;2023-02-03T00:10:00;6.73;;;2.70;;
58412;SDS011;44209;52.952;6.790;2023-02-03T00:12:27;9.77;;;2.60;;
58412;SDS011;44209;52.952;6.790;2023-02-03T00:14:53;11.70;;;2.50;;
58412;SDS011;44209;52.952;6.790;2023-02-03T00:17:18;11.17;;;2.40;;
58412;SDS011;44209;52.952;6.790;2023-02-03T00:19:44;5.87;;;2.37;;
58412;SDS011;44209;52.952;6.790;2023-02-03T00:22:10;6.10;;;2.70;;
58412;SDS011;44209;52.952;6.790;2023-02-03T00:24:35;6.77;;;2.63;;
58412;SDS011;44209;52.952;6.790;2023-02-03T00:27:01;7.13;;;2.53;;
58412;SDS011;44209;52.952;6.790;2023-02-03T00:29:27;5.80;;;2.17;;
58412;SDS011;44209;52.952;6.790;2023-02-03T00:31:52;7.80;;;2.53;;
58412;SDS011;44209;52.952;6.790;2023-02-03T00:34:18;9.97;;;2.50;;
58412;SDS011;44209;52.952;6.790;2023-02-03T00:36:44;5.73;;;2.10;;
58412;SDS011;44209;52.952;6.790;2023-02-03T00:39:12;9.33;;;2.67;;
58412;SDS011;44209;52.952;6.790;2023-02-03T00:41:41;4.47;;;2.20;;
58412;SDS011;44209;52.952;6.790;2023-02-03T00:44:07;9.73;;;2.20;;
58412;SDS011;44209;52.952;6.790;2023-02-03T00:46:32;6.43;;;2.20;;
58412;SDS011;44209;52.952;6.790;2023-02-03T00:49:00;8.40;;;2.13;;
58412;SDS011;44209;52.952;6.790;2023-02-03T00:51:26;7.67;;;2.30;;
58412;SDS011;44209;52.952;6.790;2023-02-03T00:53:52;5.47;;;2.00;;
58412;SDS011;44209;52.952;6.790;2023-02-03T00:56:18;6.53;;;2.03;;
58412;SDS011;44209;52.952;6.790;2023-02-03T00:58:43;8.00;;;2.30;;
58412;SDS011;44209;52.952;6.790;2023-02-03T01:01:09;8.10;;;2.10;;
58412;SDS011;44209;52.952;6.790;2023-02-03T01:03:35;8.73;;;2.63;;
58412;SDS011;44209;52.952;6.790;2023-02-03T01:06:14;6.80;;;2.17;;
58412;SDS011;44209;52.952;6.790;2023-02-03T01:08:43;7.63;;;2.47;;
58412;SDS011;44209;52.952;6.790;2023-02-03T01:11:16;8.03;;;2.47;;
58412;SDS011;44209;52.952;6.790;2023-02-03T01:13:48;7.70;;;2.40;;
58412;SDS011;44209;52.952;6.790;2023-02-03T01:16:15;8.80;;;2.30;;
58412;SDS011;44209;52.952;6.790;2023-02-03T01:18:42;6.53;;;2.10;;
58412;SDS011;44209;52.952;6.790;2023-02-03T01:21:13;8.60;;;2.93;;
58412;SDS011;44209;52.952;6.790;2023-02-03T01:23:41;7.97;;;2.50;;
58412;SDS011;44209;52.952;6.790;2023-02-03T01:26:08;11.07;;;3.10;;
58412;SDS011;44209;52.952;6.790;2023-02-03T01:28:41;7.40;;;2.40;;
58412;SDS011;44209;52.952;6.790;2023-02-03T01:31:08;5.47;;;2.50;;
58412;SDS011;44209;52.952;6.790;2023-02-03T01:33:45;7.90;;;2.73;;
58412;SDS011;44209;52.952;6.790;2023-02-03T01:36:15;8.97;;;2.77;;
58412;SDS011;44209;52.952;6.790;2023-02-03T01:38:42;6.37;;;2.40;;
58412;SDS011;44209;52.952;6.790;2023-02-03T01:41:11;6.90;;;2.43;;
58412;SDS011;44209;52.952;6.790;2023-02-03T01:43:39;6.70;;;2.70;;
58412;SDS011;44209;52.952;6.790;2023-02-03T01:46:14;9.37;;;3.17;;
58412;SDS011;44209;52.952;6.790;2023-02-03T01:49:15;8.70;;;2.67;;
58412;SDS011;44209;52.952;6.790;2023-02-03T01:51:53;9.77;;;3.30;;
58412;SDS011;44209;52.952;6.790;2023-02-03T01:54:25;10.13;;;3.00;;
58412;SDS011;44209;52.952;6.790;2023-02-03T01:56:58;9.43;;;3.10;;
58412;SDS011;44209;52.952;6.790;2023-02-03T01:59:30;10.27;;;2.90;;
58412;SDS011;44209;52.952;6.790;2023-02-03T02:01:58;9.10;;;2.57;;
58412;SDS011;44209;52.952;6.790;2023-02-03T02:04:26;7.57;;;2.87;;
58412;SDS011;44209;52.952;6.790;2023-02-03T02:07:01;9.67;;;3.00;;
58412;SDS011;44209;52.952;6.790;2023-02-03T02:09:27;8.27;;;2.90;;
58412;SDS011;44209;52.952;6.790;2023-02-03T02:11:53;7.37;;;2.87;;
58412;SDS011;44209;52.952;6.790;2023-02-03T02:14:19;9.07;;;2.53;;
58412;SDS011;44209;52.952;6.790;2023-02-03T02:30:19;7.83;;;2.80;;
58412;SDS011;44209;52.952;6.790;2023-02-03T02:33:09;11.37;;;2.73;;
58412;SDS011;44209;52.952;6.790;2023-02-03T02:41:15;5.93;;;2.27;;
58412;SDS011;44209;52.952;6.790;2023-02-03T02:46:37;8.17;;;2.70;;
58412;SDS011;44209;52.952;6.790;2023-02-03T02:49:15;11.23;;;2.88;;
58412;SDS011;44209;52.952;6.790;2023-02-03T02:51:56;9.13;;;2.60;;
58412;SDS011;44209;52.952;6.790;2023-02-03T02:54:26;11.20;;;2.90;;
58412;SDS011;44209;52.952;6.790;2023-02-03T02:56:55;6.50;;;2.27;;
58412;SDS011;44209;52.952;6.790;2023-02-03T02:59:25;8.83;;;2.50;;
58412;SDS011;44209;52.952;6.790;2023-02-03T03:01:50;13.33;;;2.90;;
58412;SDS011;44209;52.952;6.790;2023-02-03T03:04:17;9.53;;;2.33;;
58412;SDS011;44209;52.952;6.790;2023-02-03T03:06:47;9.03;;;2.77;;
58412;SDS011;44209;52.952;6.790;2023-02-03T03:09:18;8.60;;;2.30;;
58412;SDS011;44209;52.952;6.790;2023-02-03T03:11:49;10.10;;;3.20;;
58412;SDS011;44209;52.952;6.790;2023-02-03T03:14:18;7.23;;;2.50;;
58412;SDS011;44209;52.952;6.790;2023-02-03T03:16:47;13.63;;;2.73;;
58412;SDS011;44209;52.952;6.790;2023-02-03T03:19:19;7.30;;;2.38;;
58412;SDS011;44209;52.952;6.790;2023-02-03T03:21:56;7.57;;;2.90;;
58412;SDS011;44209;52.952;6.790;2023-02-03T03:24:26;8.47;;;2.37;;
58412;SDS011;44209;52.952;6.790;2023-02-03T03:26:57;11.07;;;2.50;;
58412;SDS011;44209;52.952;6.790;2023-02-03T03:32:06;8.83;;;2.40;;
58412;SDS011;44209;52.952;6.790;2023-02-03T03:34:33;7.20;;;2.47;;
58412;SDS011;44209;52.952;6.790;2023-02-03T03:37:00;10.50;;;2.73;;
58412;SDS011;44209;52.952;6.790;2023-02-03T03:42:24;6.57;;;2.33;;
58412;SDS011;44209;52.952;6.790;2023-02-03T03:44:58;8.97;;;2.20;;
58412;SDS011;44209;52.952;6.790;2023-02-03T03:50:41;6.83;;;2.60;;
58412;SDS011;44209;52.952;6.790;2023-02-03T03:53:10;9.63;;;3.40;;
58412;SDS011;44209;52.952;6.790;2023-02-03T03:55:39;7.60;;;2.67;;
58412;SDS011;44209;52.952;6.790;2023-02-03T03:58:08;8.83;;;2.90;;
58412;SDS011;44209;52.952;6.790;2023-02-03T04:00:37;12.90;;;3.10;;
58412;SDS011;44209;52.952;6.790;2023-02-03T04:03:06;12.93;;;2.80;;
58412;SDS011;44209;52.952;6.790;2023-02-03T04:05:41;9.97;;;2.63;;
58412;SDS011;44209;52.952;6.790;2023-02-03T04:08:07;9.27;;;2.97;;
58412;SDS011;44209;52.952;6.790;2023-02-03T04:10:34;10.20;;;2.77;;
58412;SDS011;44209;52.952;6.790;2023-02-03T04:13:02;10.93;;;2.67;;
58412;SDS011;44209;52.952;6.790;2023-02-03T04:15:28;10.37;;;2.97;;
58412;SDS011;44209;52.952;6.790;2023-02-03T04:17:55;8.67;;;2.70;;
58412;SDS011;44209;52.952;6.790;2023-02-03T04:20:21;7.17;;;2.30;;
58412;SDS011;44209;52.952;6.790;2023-02-03T04:22:50;10.37;;;2.90;;
58412;SDS011;44209;52.952;6.790;2023-02-03T04:25:16;7.47;;;2.83;;
58412;SDS011;44209;52.952;6.790;2023-02-03T04:27:41;7.53;;;2.93;;
58412;SDS011;44209;52.952;6.790;2023-02-03T04:30:07;10.10;;;2.60;;
58412;SDS011;44209;52.952;6.790;2023-02-03T04:32:34;10.00;;;2.70;;
58412;SDS011;44209;52.952;6.790;2023-02-03T04:35:00;14.23;;;2.70;;
58412;SDS011;44209;52.952;6.790;2023-02-03T04:37:27;9.37;;;3.00;;
58412;SDS011;44209;52.952;6.790;2023-02-03T04:39:53;9.63;;;2.43;;
58412;SDS011;44209;52.952;6.790;2023-02-03T04:42:19;7.63;;;3.23;;
58412;SDS011;44209;52.952;6.790;2023-02-03T04:44:45;10.63;;;3.10;;
58412;SDS011;44209;52.952;6.790;2023-02-03T04:47:11;11.27;;;2.90;;
58412;SDS011;44209;52.952;6.790;2023-02-03T04:49:37;5.87;;;2.37;;
58412;SDS011;44209;52.952;6.790;2023-02-03T04:52:03;7.47;;;2.40;;
58412;SDS011;44209;52.952;6.790;2023-02-03T04:54:30;12.23;;;3.20;;
58412;SDS011;44209;52.952;6.790;2023-02-03T04:56:55;8.47;;;2.50;;
58412;SDS011;44209;52.952;6.790;2023-02-03T04:59:21;11.43;;;2.70;;
58412;SDS011;44209;52.952;6.790;2023-02-03T05:01:47;10.30;;;3.03;;
58412;SDS011;44209;52.952;6.790;2023-02-03T05:04:12;11.43;;;2.80;;
58412;SDS011;44209;52.952;6.790;2023-02-03T05:06:38;10.27;;;2.93;;
58412;SDS011;44209;52.952;6.790;2023-02-03T05:09:04;13.63;;;3.10;;
58412;SDS011;44209;52.952;6.790;2023-02-03T05:11:31;7.97;;;2.53;;
58412;SDS011;44209;52.952;6.790;2023-02-03T05:13:57;8.23;;;2.73;;
58412;SDS011;44209;52.952;6.790;2023-02-03T05:16:22;11.67;;;2.47;;
58412;SDS011;44209;52.952;6.790;2023-02-03T05:18:48;10.03;;;2.80;;
58412;SDS011;44209;52.952;6.790;2023-02-03T05:21:14;11.20;;;2.77;;
58412;SDS011;44209;52.952;6.790;2023-02-03T05:23:40;8.77;;;2.77;;
58412;SDS011;44209;52.952;6.790;2023-02-03T05:26:06;12.03;;;3.30;;
58412;SDS011;44209;52.952;6.790;2023-02-03T05:28:31;12.57;;;2.97;;
58412;SDS011;44209;52.952;6.790;2023-02-03T05:30:58;10.90;;;3.63;;
58412;SDS011;44209;52.952;6.790;2023-02-03T05:33:24;9.17;;;2.80;;
58412;SDS011;44209;52.952;6.790;2023-02-03T05:35:49;7.90;;;3.30;;
58412;SDS011;44209;52.952;6.790;2023-02-03T05:38:15;11.17;;;2.80;;
58412;SDS011;44209;52.952;6.790;2023-02-03T05:40:41;10.60;;;3.03;;
58412;SDS011;44209;52.952;6.790;2023-02-03T05:43:26;9.27;;;3.07;;
58412;SDS011;44209;52.952;6.790;2023-02-03T05:45:52;10.23;;;2.90;;
58412;SDS011;44209;52.952;6.790;2023-02-03T05:48:18;11.63;;;2.77;;
58412;SDS011;44209;52.952;6.790;2023-02-03T05:50:44;11.37;;;3.20;;
58412;SDS011;44209;52.952;6.790;2023-02-03T05:53:09;7.03;;;2.77;;
58412;SDS011;44209;52.952;6.790;2023-02-03T05:55:35;10.47;;;3.37;;
58412;SDS011;44209;52.952;6.790;2023-02-03T05:58:02;13.57;;;3.40;;
58412;SDS011;44209;52.952;6.790;2023-02-03T06:00:29;8.93;;;2.80;;
58412;SDS011;44209;52.952;6.790;2023-02-03T06:02:59;9.33;;;3.17;;
58412;SDS011;44209;52.952;6.790;2023-02-03T06:05:28;11.30;;;3.23;;
58412;SDS011;44209;52.952;6.790;2023-02-03T06:07:55;13.33;;;3.10;;
58412;SDS011;44209;52.952;6.790;2023-02-03T06:10:21;12.57;;;2.90;;
58412;SDS011;44209;52.952;6.790;2023-02-03T06:12:47;9.17;;;3.00;;
58412;SDS011;44209;52.952;6.790;2023-02-03T06:15:13;8.37;;;2.90;;
58412;SDS011;44209;52.952;6.790;2023-02-03T06:17:42;10.20;;;3.53;;
58412;SDS011;44209;52.952;6.790;2023-02-03T06:20:13;12.73;;;3.73;;
58412;SDS011;44209;52.952;6.790;2023-02-03T06:22:41;8.53;;;3.30;;
58412;SDS011;44209;52.952;6.790;2023-02-03T06:25:07;7.33;;;3.43;;
58412;SDS011;44209;52.952;6.790;2023-02-03T06:27:33;8.10;;;3.20;;
58412;SDS011;44209;52.952;6.790;2023-02-03T06:29:59;8.27;;;3.50;;
58412;SDS011;44209;52.952;6.790;2023-02-03T06:32:25;10.47;;;3.60;;
58412;SDS011;44209;52.952;6.790;2023-02-03T06:34:50;10.23;;;3.33;;
58412;SDS011;44209;52.952;6.790;2023-02-03T06:37:16;10.03;;;3.73;;
58412;SDS011;44209;52.952;6.790;2023-02-03T06:39:42;11.73;;;3.80;;
58412;SDS011;44209;52.952;6.790;2023-02-03T06:42:07;13.23;;;3.90;;
58412;SDS011;44209;52.952;6.790;2023-02-03T06:44:33;9.43;;;3.90;;
58412;SDS011;44209;52.952;6.790;2023-02-03T06:46:59;12.03;;;3.67;;
58412;SDS011;44209;52.952;6.790;2023-02-03T06:49:26;10.27;;;3.13;;
58412;SDS011;44209;52.952;6.790;2023-02-03T06:51:52;8.00;;;3.43;;
58412;SDS011;44209;52.952;6.790;2023-02-03T06:54:18;11.13;;;3.80;;
58412;SDS011;44209;52.952;6.790;2023-02-03T06:56:44;11.90;;;3.20;;
58412;SDS011;44209;52.952;6.790;2023-02-03T06:59:10;11.10;;;3.60;;
58412;SDS011;44209;52.952;6.790;2023-02-03T07:01:36;11.37;;;3.63;;
58412;SDS011;44209;52.952;6.790;2023-02-03T07:04:02;13.40;;;3.80;;
58412;SDS011;44209;52.952;6.790;2023-02-03T07:06:28;10.00;;;3.97;;
58412;SDS011;44209;52.952;6.790;2023-02-03T07:09:00;10.63;;;3.50;;
58412;SDS011;44209;52.952;6.790;2023-02-03T07:11:27;10.57;;;3.10;;
58412;SDS011;44209;52.952;6.790;2023-02-03T07:13:53;9.43;;;3.43;;
58412;SDS011;44209;52.952;6.790;2023-02-03T07:16:18;11.67;;;3.40;;
58412;SDS011;44209;52.952;6.790;2023-02-03T07:18:44;13.80;;;4.90;;
58412;SDS011;44209;52.952;6.790;2023-02-03T07:21:10;10.37;;;3.57;;
58412;SDS011;44209;52.952;6.790;2023-02-03T07:23:37;11.63;;;3.30;;
58412;SDS011;44209;52.952;6.790;2023-02-03T07:26:03;10.57;;;3.50;;
58412;SDS011;44209;52.952;6.790;2023-02-03T07:28:30;14.23;;;3.93;;
58412;SDS011;44209;52.952;6.790;2023-02-03T07:30:56;16.00;;;4.27;;
58412;SDS011;44209;52.952;6.790;2023-02-03T07:33:22;11.93;;;3.97;;
58412;SDS011;44209;52.952;6.790;2023-02-03T07:35:51;10.93;;;4.27;;
58412;SDS011;44209;52.952;6.790;2023-02-03T07:38:21;10.60;;;3.57;;
58412;SDS011;44209;52.952;6.790;2023-02-03T07:40:47;15.30;;;3.93;;
58412;SDS011;44209;52.952;6.790;2023-02-03T07:43:13;16.43;;;4.97;;
58412;SDS011;44209;52.952;6.790;2023-02-03T07:45:39;18.03;;;5.00;;
58412;SDS011;44209;52.952;6.790;2023-02-03T07:48:05;20.57;;;5.07;;
58412;SDS011;44209;52.952;6.790;2023-02-03T07:50:31;15.50;;;4.53;;
58412;SDS011;44209;52.952;6.790;2023-02-03T07:52:57;19.37;;;5.00;;
58412;SDS011;44209;52.952;6.790;2023-02-03T07:55:23;16.70;;;5.10;;
58412;SDS011;44209;52.952;6.790;2023-02-03T07:57:49;14.77;;;5.10;;
58412;SDS011;44209;52.952;6.790;2023-02-03T08:00:17;14.97;;;4.87;;
58412;SDS011;44209;52.952;6.790;2023-02-03T08:02:43;16.37;;;5.27;;
58412;SDS011;44209;52.952;6.790;2023-02-03T08:05:09;21.73;;;5.77;;
58412;SDS011;44209;52.952;6.790;2023-02-03T08:07:35;24.27;;;5.30;;
58412;SDS011;44209;52.952;6.790;2023-02-03T08:10:01;15.63;;;5.13;;
58412;SDS011;44209;52.952;6.790;2023-02-03T08:12:28;17.00;;;5.30;;
58412;SDS011;44209;52.952;6.790;2023-02-03T08:14:53;20.40;;;5.67;;
58412;SDS011;44209;52.952;6.790;2023-02-03T08:17:19;17.47;;;5.67;;
58412;SDS011;44209;52.952;6.790;2023-02-03T08:19:45;20.73;;;5.30;;
58412;SDS011;44209;52.952;6.790;2023-02-03T08:22:10;16.50;;;5.27;;
58412;SDS011;44209;52.952;6.790;2023-02-03T08:24:43;15.70;;;4.87;;
58412;SDS011;44209;52.952;6.790;2023-02-03T08:27:13;17.80;;;4.83;;
58412;SDS011;44209;52.952;6.790;2023-02-03T08:29:40;18.07;;;5.10;;
58412;SDS011;44209;52.952;6.790;2023-02-03T08:32:09;24.40;;;5.10;;
58412;SDS011;44209;52.952;6.790;2023-02-03T08:34:43;17.23;;;5.47;;
58412;SDS011;44209;52.952;6.790;2023-02-03T08:37:09;14.73;;;5.63;;
58412;SDS011;44209;52.952;6.790;2023-02-03T08:39:37;19.23;;;5.20;;
58412;SDS011;44209;52.952;6.790;2023-02-03T08:42:03;17.83;;;5.03;;
58412;SDS011;44209;52.952;6.790;2023-02-03T08:44:29;14.23;;;5.40;;
58412;SDS011;44209;52.952;6.790;2023-02-03T08:46:55;19.13;;;5.63;;
58412;SDS011;44209;52.952;6.790;2023-02-03T08:49:22;20.37;;;5.60;;
58412;SDS011;44209;52.952;6.790;2023-02-03T08:51:50;22.17;;;5.60;;
58412;SDS011;44209;52.952;6.790;2023-02-03T08:54:16;18.10;;;5.37;;
58412;SDS011;44209;52.952;6.790;2023-02-03T08:56:43;18.33;;;5.40;;
58412;SDS011;44209;52.952;6.790;2023-02-03T08:59:09;20.27;;;5.83;;
58412;SDS011;44209;52.952;6.790;2023-02-03T09:01:35;14.40;;;5.50;;
58412;SDS011;44209;52.952;6.790;2023-02-03T09:04:01;22.83;;;5.53;;
58412;SDS011;44209;52.952;6.790;2023-02-03T09:06:28;20.87;;;5.23;;
58412;SDS011;44209;52.952;6.790;2023-02-03T09:08:55;22.90;;;5.97;;
58412;SDS011;44209;52.952;6.790;2023-02-03T09:11:21;17.80;;;5.33;;
58412;SDS011;44209;52.952;6.790;2023-02-03T09:13:47;16.47;;;5.73;;
58412;SDS011;44209;52.952;6.790;2023-02-03T09:16:14;21.13;;;5.17;;
58412;SDS011;44209;52.952;6.790;2023-02-03T09:18:42;21.40;;;5.90;;
58412;SDS011;44209;52.952;6.790;2023-02-03T09:21:09;21.03;;;5.60;;
58412;SDS011;44209;52.952;6.790;2023-02-03T09:23:35;20.97;;;5.60;;
58412;SDS011;44209;52.952;6.790;2023-02-03T09:26:02;21.37;;;5.60;;
58412;SDS011;44209;52.952;6.790;2023-02-03T09:28:29;23.20;;;6.47;;
58412;SDS011;44209;52.952;6.790;2023-02-03T09:30:59;18.80;;;5.63;;
58412;SDS011;44209;52.952;6.790;2023-02-03T09:33:26;21.20;;;5.70;;
58412;SDS011;44209;52.952;6.790;2023-02-03T09:35:52;24.93;;;6.77;;
58412;SDS011;44209;52.952;6.790;2023-02-03T09:38:18;22.47;;;6.40;;
58412;SDS011;44209;52.952;6.790;2023-02-03T09:40:44;21.13;;;6.23;;
58412;SDS011;44209;52.952;6.790;2023-02-03T09:46:09;26.03;;;6.47;;
58412;SDS011;44209;52.952;6.790;2023-02-03T09:48:38;24.17;;;6.67;;
58412;SDS011;44209;52.952;6.790;2023-02-03T09:51:19;22.47;;;5.93;;
58412;SDS011;44209;52.952;6.790;2023-02-03T09:53:50;24.20;;;5.77;;
58412;SDS011;44209;52.952;6.790;2023-02-03T09:56:32;25.37;;;6.13;;
58412;SDS011;44209;52.952;6.790;2023-02-03T09:58:59;25.20;;;6.07;;
58412;SDS011;44209;52.952;6.790;2023-02-03T10:01:33;23.17;;;6.57;;
58412;SDS011;44209;52.952;6.790;2023-02-03T10:04:12;22.90;;;6.03;;
58412;SDS011;44209;52.952;6.790;2023-02-03T10:06:43;25.43;;;6.07;;
58412;SDS011;44209;52.952;6.790;2023-02-03T10:11:59;22.63;;;6.00;;
58412;SDS011;44209;52.952;6.790;2023-02-03T10:14:55;25.47;;;6.13;;
58412;SDS011;44209;52.952;6.790;2023-02-03T10:17:40;27.53;;;6.77;;
58412;SDS011;44209;52.952;6.790;2023-02-03T10:20:15;24.20;;;5.97;;
58412;SDS011;44209;52.952;6.790;2023-02-03T10:22:53;26.17;;;6.47;;
58412;SDS011;44209;52.952;6.790;2023-02-03T10:25:41;22.67;;;5.53;;
58412;SDS011;44209;52.952;6.790;2023-02-03T10:28:18;22.23;;;5.53;;
58412;SDS011;44209;52.952;6.790;2023-02-03T10:30:55;19.03;;;5.33;;
58412;SDS011;44209;52.952;6.790;2023-02-03T10:33:26;18.70;;;5.17;;
58412;SDS011;44209;52.952;6.790;2023-02-03T10:35:54;29.75;;;6.78;;
58412;SDS011;44209;52.952;6.790;2023-02-03T10:38:37;21.23;;;5.47;;
58412;SDS011;44209;52.952;6.790;2023-02-03T10:41:05;26.87;;;5.43;;
58412;SDS011;44209;52.952;6.790;2023-02-03T10:43:31;26.27;;;6.27;;
58412;SDS011;44209;52.952;6.790;2023-02-03T10:46:32;24.43;;;6.30;;
58412;SDS011;44209;52.952;6.790;2023-02-03T10:48:59;24.90;;;6.50;;
58412;SDS011;44209;52.952;6.790;2023-02-03T10:51:29;31.20;;;6.27;;
58412;SDS011;44209;52.952;6.790;2023-02-03T10:54:25;31.40;;;6.60;;
58412;SDS011;44209;52.952;6.790;2023-02-03T10:57:11;23.70;;;6.13;;
58412;SDS011;44209;52.952;6.790;2023-02-03T10:59:45;28.63;;;6.20;;
58412;SDS011;44209;52.952;6.790;2023-02-03T11:02:22;27.17;;;6.20;;
58412;SDS011;44209;52.952;6.790;2023-02-03T11:07:43;29.15;;;5.93;;
58412;SDS011;44209;52.952;6.790;2023-02-03T11:12:49;31.47;;;6.30;;
58412;SDS011;44209;52.952;6.790;2023-02-03T11:15:15;26.77;;;6.77;;
58412;SDS011;44209;52.952;6.790;2023-02-03T11:17:42;29.30;;;7.20;;
58412;SDS011;44209;52.952;6.790;2023-02-03T11:20:12;34.63;;;8.50;;
58412;SDS011;44209;52.952;6.790;2023-02-03T11:22:40;25.52;;;6.70;;
58412;SDS011;44209;52.952;6.790;2023-02-03T11:25:19;25.00;;;6.93;;
58412;SDS011;44209;52.952;6.790;2023-02-03T11:27:51;25.73;;;5.57;;
58412;SDS011;44209;52.952;6.790;2023-02-03T11:32:49;27.87;;;6.67;;
58412;SDS011;44209;52.952;6.790;2023-02-03T11:35:22;27.73;;;6.50;;
58412;SDS011;44209;52.952;6.790;2023-02-03T11:37:50;23.57;;;5.90;;
58412;SDS011;44209;52.952;6.790;2023-02-03T11:48:01;29.70;;;6.77;;
58412;SDS011;44209;52.952;6.790;2023-02-03T12:20:04;29.97;;;6.97;;
58412;SDS011;44209;52.952;6.790;2023-02-03T12:22:53;25.10;;;5.43;;
58412;SDS011;44209;52.952;6.790;2023-02-03T12:30:45;30.07;;;6.73;;
58412;SDS011;44209;52.952;6.790;2023-02-03T12:33:17;29.93;;;6.27;;
58412;SDS011;44209;52.952;6.790;2023-02-03T12:35:55;29.07;;;6.07;;
58412;SDS011;44209;52.952;6.790;2023-02-03T12:38:30;31.07;;;6.77;;
58412;SDS011;44209;52.952;6.790;2023-02-03T12:41:05;29.67;;;6.07;;
58412;SDS011;44209;52.952;6.790;2023-02-03T12:43:39;26.50;;;6.33;;
58412;SDS011;44209;52.952;6.790;2023-02-03T12:46:09;24.93;;;6.37;;
58412;SDS011;44209;52.952;6.790;2023-02-03T12:51:06;25.10;;;5.67;;
58412;SDS011;44209;52.952;6.790;2023-02-03T12:53:40;20.17;;;5.67;;
58412;SDS011;44209;52.952;6.790;2023-02-03T12:56:12;23.43;;;5.60;;
58412;SDS011;44209;52.952;6.790;2023-02-03T12:58:55;19.17;;;5.33;;
58412;SDS011;44209;52.952;6.790;2023-02-03T13:01:46;22.47;;;5.40;;
58412;SDS011;44209;52.952;6.790;2023-02-03T13:04:34;20.07;;;4.87;;
58412;SDS011;44209;52.952;6.790;2023-02-03T13:07:28;25.67;;;6.27;;
58412;SDS011;44209;52.952;6.790;2023-02-03T13:10:13;29.07;;;6.20;;
58412;SDS011;44209;52.952;6.790;2023-02-03T13:12:52;21.37;;;5.70;;
58412;SDS011;44209;52.952;6.790;2023-02-03T13:15:36;23.48;;;5.20;;
58412;SDS011;44209;52.952;6.790;2023-02-03T13:18:33;22.47;;;5.40;;
58412;SDS011;44209;52.952;6.790;2023-02-03T13:21:01;21.17;;;5.43;;
58412;SDS011;44209;52.952;6.790;2023-02-03T13:23:27;20.63;;;5.93;;
58412;SDS011;44209;52.952;6.790;2023-02-03T13:26:11;27.73;;;5.90;;
58412;SDS011;44209;52.952;6.790;2023-02-03T13:41:01;21.00;;;5.20;;
58412;SDS011;44209;52.952;6.790;2023-02-03T13:43:36;22.65;;;5.68;;
58412;SDS011;44209;52.952;6.790;2023-02-03T13:46:06;25.87;;;5.87;;
58412;SDS011;44209;52.952;6.790;2023-02-03T13:48:42;28.13;;;6.50;;
58412;SDS011;44209;52.952;6.790;2023-02-03T13:51:13;28.67;;;6.73;;
58412;SDS011;44209;52.952;6.790;2023-02-03T13:53:43;26.70;;;6.47;;
58412;SDS011;44209;52.952;6.790;2023-02-03T13:56:18;30.33;;;6.10;;
58412;SDS011;44209;52.952;6.790;2023-02-03T14:01:31;24.43;;;5.87;;
58412;SDS011;44209;52.952;6.790;2023-02-03T14:04:00;29.10;;;6.23;;
58412;SDS011;44209;52.952;6.790;2023-02-03T14:09:46;28.43;;;5.53;;
58412;SDS011;44209;52.952;6.790;2023-02-03T14:19:59;24.77;;;5.40;;
58412;SDS011;44209;52.952;6.790;2023-02-03T14:22:25;28.40;;;5.47;;
58412;SDS011;44209;52.952;6.790;2023-02-03T14:24:52;24.20;;;6.30;;
58412;SDS011;44209;52.952;6.790;2023-02-03T14:27:21;27.17;;;5.93;;
58412;SDS011;44209;52.952;6.790;2023-02-03T14:30:06;25.83;;;5.83;;
58412;SDS011;44209;52.952;6.790;2023-02-03T14:32:49;23.90;;;5.53;;
58412;SDS011;44209;52.952;6.790;2023-02-03T14:35:21;20.07;;;5.37;;
58412;SDS011;44209;52.952;6.790;2023-02-03T14:37:53;23.10;;;5.30;;
58412;SDS011;44209;52.952;6.790;2023-02-03T14:56:20;18.83;;;4.15;;
58412;SDS011;44209;52.952;6.790;2023-02-03T14:59:00;17.13;;;4.27;;
58412;SDS011;44209;52.952;6.790;2023-02-03T15:06:45;25.93;;;5.27;;
58412;SDS011;44209;52.952;6.790;2023-02-03T15:09:20;20.97;;;5.57;;
58412;SDS011;44209;52.952;6.790;2023-02-03T15:12:21;20.43;;;4.63;;
58412;SDS011;44209;52.952;6.790;2023-02-03T15:14:49;19.60;;;5.53;;
58412;SDS011;44209;52.952;6.790;2023-02-03T15:17:23;17.53;;;4.73;;
58412;SDS011;44209;52.952;6.790;2023-02-03T15:19:54;19.70;;;4.37;;
58412;SDS011;44209;52.952;6.790;2023-02-03T15:22:21;19.03;;;4.60;;
58412;SDS011;44209;52.952;6.790;2023-02-03T15:24:51;26.27;;;5.13;;
58412;SDS011;44209;52.952;6.790;2023-02-03T15:27:24;19.03;;;5.23;;
58412;SDS011;44209;52.952;6.790;2023-02-03T15:29:51;25.08;;;5.25;;
58412;SDS011;44209;52.952;6.790;2023-02-03T15:34:53;21.57;;;5.10;;
58412;SDS011;44209;52.952;6.790;2023-02-03T15:37:27;18.80;;;4.43;;
58412;SDS011;44209;52.952;6.790;2023-02-03T15:40:02;22.20;;;4.37;;
58412;SDS011;44209;52.952;6.790;2023-02-03T15:42:42;20.57;;;4.80;;
58412;SDS011;44209;52.952;6.790;2023-02-03T15:48:03;23.03;;;4.63;;
58412;SDS011;44209;52.952;6.790;2023-02-03T15:50:47;21.07;;;4.67;;
58412;SDS011;44209;52.952;6.790;2023-02-03T15:53:28;19.53;;;4.47;;
58412;SDS011;44209;52.952;6.790;2023-02-03T15:55:58;17.10;;;4.43;;
58412;SDS011;44209;52.952;6.790;2023-02-03T15:58:29;23.50;;;5.13;;
58412;SDS011;44209;52.952;6.790;2023-02-03T16:01:04;19.90;;;4.53;;
58412;SDS011;44209;52.952;6.790;2023-02-03T16:03:48;18.67;;;4.77;;
58412;SDS011;44209;52.952;6.790;2023-02-03T16:09:00;23.43;;;4.73;;
58412;SDS011;44209;52.952;6.790;2023-02-03T16:11:27;23.13;;;5.23;;
58412;SDS011;44209;52.952;6.790;2023-02-03T16:13:56;18.10;;;4.60;;
58412;SDS011;44209;52.952;6.790;2023-02-03T16:16:25;17.33;;;4.20;;
58412;SDS011;44209;52.952;6.790;2023-02-03T16:19:02;21.13;;;4.50;;
58412;SDS011;44209;52.952;6.790;2023-02-03T16:24:00;19.42;;;4.72;;
58412;SDS011;44209;52.952;6.790;2023-02-03T16:26:30;21.60;;;4.60;;
58412;SDS011;44209;52.952;6.790;2023-02-03T16:31:51;24.80;;;4.50;;
58412;SDS011;44209;52.952;6.790;2023-02-03T16:34:35;22.93;;;5.33;;
58412;SDS011;44209;52.952;6.790;2023-02-03T16:37:27;20.77;;;5.10;;
58412;SDS011;44209;52.952;6.790;2023-02-03T16:40:16;20.20;;;5.30;;
58412;SDS011;44209;52.952;6.790;2023-02-03T16:43:02;25.57;;;5.47;;
58412;SDS011;44209;52.952;6.790;2023-02-03T16:45:50;25.03;;;5.87;;
58412;SDS011;44209;52.952;6.790;2023-02-03T16:48:38;21.23;;;4.77;;
58412;SDS011;44209;52.952;6.790;2023-02-03T16:51:22;20.37;;;5.43;;
58412;SDS011;44209;52.952;6.790;2023-02-03T16:53:48;26.80;;;5.93;;
58412;SDS011;44209;52.952;6.790;2023-02-03T16:56:13;27.47;;;6.20;;
58412;SDS011;44209;52.952;6.790;2023-02-03T16:58:41;23.60;;;5.77;;
58412;SDS011;44209;52.952;6.790;2023-02-03T17:01:07;24.73;;;5.37;;
58412;SDS011;44209;52.952;6.790;2023-02-03T17:03:35;34.10;;;6.27;;
58412;SDS011;44209;52.952;6.790;2023-02-03T17:06:11;34.20;;;7.33;;
58412;SDS011;44209;52.952;6.790;2023-02-03T17:08:38;28.80;;;6.87;;
58412;SDS011;44209;52.952;6.790;2023-02-03T17:11:06;22.77;;;5.53;;
58412;SDS011;44209;52.952;6.790;2023-02-03T17:13:33;32.50;;;7.47;;
58412;SDS011;44209;52.952;6.790;2023-02-03T17:16:05;38.23;;;6.43;;
58412;SDS011;44209;52.952;6.790;2023-02-03T17:18:33;25.33;;;8.87;;
58412;SDS011;44209;52.952;6.790;2023-02-03T17:21:03;29.33;;;7.63;;
58412;SDS011;44209;52.952;6.790;2023-02-03T17:23:33;27.87;;;5.93;;
58412;SDS011;44209;52.952;6.790;2023-02-03T17:25:59;27.90;;;7.40;;